Eagle, NE (68347)

3:41 AM CST on January 24, 2017 (GMT -0600)
Arbor Road | | Change Station

Elev 1253 ft 40.78 °N, 96.42 °W | Updated 33 seconds ago

Overcast
Overcast
29.5 °F
Feels Like 22 °F
N
8.1
Wind Variable Wind from ESE
Gusts 12.0 mph

Today
High -- | Low -- °F
--% Chance of Precip.
Yesterday
High -- | Low -- °F
Precip. -- in
Pressure 29.80 in
Visibility 6.0 miles
Clouds Overcast 600 ft
Windchill 22 °F
Dew Point 28 °F
Humidity 95%
Rainfall 0.00 in
Snow Depth Not available.
7:42 AM 5:33 PM
Waning Crescent, 13% visible
METAR KLNK 240854Z AUTO 10010KT 6SM BR OVC006 M01/M02 A2977 RMK AO2 SLP090 T10061017 56008
Pressure 29.80 in
Visibility 6.0 miles
Clouds Overcast 600 ft
Windchill 22 °F
Dew Point 28 °F
Humidity 95%
Rainfall 0.00 in
Snow Depth Not available.
7:42 AM 5:33 PM
Waning Crescent, 13% visible
METAR KLNK 240854Z AUTO 10010KT 6SM BR OVC006 M01/M02 A2977 RMK AO2 SLP090 T10061017 56008

Get Your Daily Forecast Email!

Thanks for signing up!

Be on the lookout for a verification email in your inbox.

You'll start receiving the daily forecast at 8 AM.

×

10-Day Weather Forecast

Almanac

Astronomy

Jan. 24, 2017 Rise Set
Actual Time
Civil Twilight
Nautical Twilight
Astronomical Twilight
Moon
Length of Visible Light
Length of Day
Tomorrow will be .
, % of the Moon is Illuminated

Today's Extremes

State Highs State Lows

Community

WunderPhotos

Upload Photos

1,962,540 photos uploaded!

WunderBlog® & News

Nearby

Air Quality

  Air Quality AQ Index Pollutant
Not available.

Snow Depth

Station Depth Elevation

Earthquake Activity

City Distance Mag. Time & Date
Minimum magnitude displayed is 2.5.

Coastal Water Temperatures

Place Temperature

Stations

Nearby Weather Stations

Station Location Temp. Windchill Dew Point Humidity Wind Precip. Elev Updated Type
                   

Watches & Warnings

There are currently no watches in effect.